Oriibu — JD2579 — position and weather

sailwx.info

Track history (hours):
 
Tides and Currents Weather Stations Pressure Air Temp Water Temp Dewpoint Dewpoint Depression Visibility Wind Speed Wind Dir Waves Ship Positions

Oriibu

Last reported at 2017-Jun-21 11:28 UTC. Time now 2017-Jun-23 06:57 UTC.
Position N 34°36' E 134°56'.

Length 75 m; draft 3.6 m.

MMSI: 431000426.

Date/timePositionNaut miles runAvg speedWind from/ knotsBaromVisibWave heightAir tempDewpointWater temp
2017-Jun-21 11:28N 34°36' E 134°56'511.5
2017-Jun-21 11:00N 34°37' E 135°03'611.9
2017-Jun-21 10:29N 34°32' E 135°08'611.2
2017-Jun-21 09:58N 34°26' E 135°11'911.4
2017-Jun-21 09:09N 34°19' E 135°04'311.3
2017-Jun-21 08:52N 34°16' E 135°03'3 8.2
2017-Jun-21 08:30N 34°14' E 135°06'1 1.4
2017-Jun-21 07:59N 34°15' E 135°07'0 0.0
2017-Jun-21 07:30N 34°15' E 135°07'0 0.0
2017-Jun-21 07:00N 34°15' E 135°07'0 0.0
2017-Jun-21 06:30N 34°15' E 135°07'0 0.0
2017-Jun-21 06:01N 34°15' E 135°07'0 0.0
2017-Jun-21 05:30N 34°15' E 135°07'0 0.0
2017-Jun-21 05:01N 34°15' E 135°07'0 0.0
2017-Jun-21 04:31N 34°15' E 135°07'0 0.0
2017-Jun-21 04:01N 34°15' E 135°07'0 0.0
2017-Jun-21 03:30N 34°15' E 135°07'0 0.0
2017-Jun-21 03:01N 34°15' E 135°07'0 0.0
2017-Jun-21 02:30N 34°15' E 135°07'0 0.0
2017-Jun-21 02:01N 34°15' E 135°07'0 0.0
2017-Jun-21 01:30N 34°15' E 135°07'0 0.0
2017-Jun-21 01:00N 34°15' E 135°07'0 0.0
2017-Jun-21 00:30N 34°15' E 135°07'1 0.0
2017-Jun-20 08:51N 34°14' E 135°07'2 5.5
2017-Jun-20 08:30N 34°15' E 135°04'1610.8
2017-Jun-20 07:04N 34°29' E 135°13'112.3
2017-Jun-20 07:00N 34°30' E 135°13'612.4
2017-Jun-20 06:30N 34°35' E 135°17'612.3
2017-Jun-20 06:00N 34°40' E 135°21'3 0.4
2017-Jun-19 23:46N 34°41' E 135°24'2 7.4
2017-Jun-19 23:31N 34°40' E 135°22'2 0.9
2017-Jun-19 21:05N 34°40' E 135°20'0 0.0
2017-Jun-19 20:59N 34°40' E 135°20'0 0.0
2017-Jun-19 20:29N 34°40' E 135°20'0 0.0
2017-Jun-19 19:47N 34°40' E 135°20'0 0.0
2017-Jun-19 19:29N 34°40' E 135°20'0 0.0
2017-Jun-19 18:47N 34°40' E 135°20'0 0.0
2017-Jun-19 18:29N 34°40' E 135°20'0 0.0
2017-Jun-19 17:59N 34°40' E 135°20'0 0.0
2017-Jun-19 17:17N 34°40' E 135°20'0 0.0
2017-Jun-19 16:53N 34°40' E 135°20'0 0.0
2017-Jun-19 16:29N 34°40' E 135°20'0 0.1
2017-Jun-19 15:59N 34°40' E 135°20'0 0.0
2017-Jun-19 15:29N 34°40' E 135°20'0 0.0
2017-Jun-19 14:59N 34°40' E 135°20'0 0.0
2017-Jun-19 13:59N 34°40' E 135°20'0 0.0
2017-Jun-19 13:29N 34°40' E 135°20'0 0.4
2017-Jun-19 13:00N 34°39' E 135°20'611.9
2017-Jun-19 12:30N 34°37' E 135°13'713.0
2017-Jun-19 11:58N 34°35' E 135°05'  
2017-Jun-13 03:31N 35°21' E 139°42'112.3
2017-Jun-13 03:24N 35°23' E 139°42'511.8
2017-Jun-13 02:58N 35°26' E 139°47'11 0.5
2017-Jun-12 06:47N 35°35' E 139°54'310.9
2017-Jun-12 06:28N 35°37' E 139°50'  
Track history (hours):
 
Tides and Currents Weather Stations Pressure Air Temp Water Temp Dewpoint Dewpoint Depression Visibility Wind Speed Wind Dir Waves Ship Positions

Oriibu

Last reported at 2017-Jun-21 11:28 UTC. Time now 2017-Jun-23 06:57 UTC.
Position N 34°36' E 134°56'.

Length 75 m; draft 3.6 m.

MMSI: 431000426.

Date/timePositionNaut miles runAvg speedWind from/ knotsBaromVisibWave heightAir tempDewpointWater temp
2017-Jun-21 11:28N 34°36' E 134°56'511.5
2017-Jun-21 11:00N 34°37' E 135°03'611.9
2017-Jun-21 10:29N 34°32' E 135°08'611.2
2017-Jun-21 09:58N 34°26' E 135°11'911.4
2017-Jun-21 09:09N 34°19' E 135°04'311.3
2017-Jun-21 08:52N 34°16' E 135°03'3 8.2
2017-Jun-21 08:30N 34°14' E 135°06'1 1.4
2017-Jun-21 07:59N 34°15' E 135°07'0 0.0
2017-Jun-21 07:30N 34°15' E 135°07'0 0.0
2017-Jun-21 07:00N 34°15' E 135°07'0 0.0
2017-Jun-21 06:30N 34°15' E 135°07'0 0.0
2017-Jun-21 06:01N 34°15' E 135°07'0 0.0
2017-Jun-21 05:30N 34°15' E 135°07'0 0.0
2017-Jun-21 05:01N 34°15' E 135°07'0 0.0
2017-Jun-21 04:31N 34°15' E 135°07'0 0.0
2017-Jun-21 04:01N 34°15' E 135°07'0 0.0
2017-Jun-21 03:30N 34°15' E 135°07'0 0.0
2017-Jun-21 03:01N 34°15' E 135°07'0 0.0
2017-Jun-21 02:30N 34°15' E 135°07'0 0.0
2017-Jun-21 02:01N 34°15' E 135°07'0 0.0
2017-Jun-21 01:30N 34°15' E 135°07'0 0.0
2017-Jun-21 01:00N 34°15' E 135°07'0 0.0
2017-Jun-21 00:30N 34°15' E 135°07'1 0.0
2017-Jun-20 08:51N 34°14' E 135°07'2 5.5
2017-Jun-20 08:30N 34°15' E 135°04'1610.8
2017-Jun-20 07:04N 34°29' E 135°13'112.3
2017-Jun-20 07:00N 34°30' E 135°13'612.4
2017-Jun-20 06:30N 34°35' E 135°17'612.3
2017-Jun-20 06:00N 34°40' E 135°21'3 0.4
2017-Jun-19 23:46N 34°41' E 135°24'2 7.4
2017-Jun-19 23:31N 34°40' E 135°22'2 0.9
2017-Jun-19 21:05N 34°40' E 135°20'0 0.0
2017-Jun-19 20:59N 34°40' E 135°20'0 0.0
2017-Jun-19 20:29N 34°40' E 135°20'0 0.0
2017-Jun-19 19:47N 34°40' E 135°20'0 0.0
2017-Jun-19 19:29N 34°40' E 135°20'0 0.0
2017-Jun-19 18:47N 34°40' E 135°20'0 0.0
2017-Jun-19 18:29N 34°40' E 135°20'0 0.0
2017-Jun-19 17:59N 34°40' E 135°20'0 0.0
2017-Jun-19 17:17N 34°40' E 135°20'0 0.0
2017-Jun-19 16:53N 34°40' E 135°20'0 0.0
2017-Jun-19 16:29N 34°40' E 135°20'0 0.1
2017-Jun-19 15:59N 34°40' E 135°20'0 0.0
2017-Jun-19 15:29N 34°40' E 135°20'0 0.0
2017-Jun-19 14:59N 34°40' E 135°20'0 0.0
2017-Jun-19 13:59N 34°40' E 135°20'0 0.0
2017-Jun-19 13:29N 34°40' E 135°20'0 0.4
2017-Jun-19 13:00N 34°39' E 135°20'611.9
2017-Jun-19 12:30N 34°37' E 135°13'713.0
2017-Jun-19 11:58N 34°35' E 135°05'  
2017-Jun-13 03:31N 35°21' E 139°42'112.3
2017-Jun-13 03:24N 35°23' E 139°42'511.8
2017-Jun-13 02:58N 35°26' E 139°47'11 0.5
2017-Jun-12 06:47N 35°35' E 139°54'310.9
2017-Jun-12 06:28N 35°37' E 139°50'  

Dump ship's entire track history